• Join FlightAware (Why Join?)
  • Login
  • US Flag 
04:20AM EST


 

Airport Tracker/Info


-or-


 

Live Flight TrackerFlight Track Log ✈ KAP409 ✈ 20-Jun-2013 ✈ KSTL - KCGI

Flight Track Log - Related Links

Times and Time Zones

All times are in EDT time to prevent confusion due to time zone crossing. See the KAP409 flight status page for this flight to view local times or setup timezone preferences in your user account.

Time Position Orientation Groundspeed Altitude Reporting Facility
EDT Latitude Longitude Course Direction KTS MPH feet Rate Location/Type
01:30PM 38.7000 -90.3333 180° South 115 132 1,800  Level Gateway (St. Louis) TRACON
01:31PM 38.6842 -90.3300 171° South 117 135 2,300 720 Climbing Kansas City Center
01:32PM 38.6442 -90.3217 171° South 118 136 3,100 720 Climbing Kansas City Center
01:33PM 38.6092 -90.3131 169° South 122 140 3,900 600 Climbing Kansas City Center
01:34PM 38.5753 -90.3044 169° South 124 143 4,400 540 Climbing Kansas City Center
01:35PM 38.5419 -90.2906 162° South 124 143 5,100 300 Climbing Kansas City Center
01:36PM 38.5044 -90.2714 158° South 137 158 5,100  Level Kansas City Center
01:37PM 38.4633 -90.2486 157° South 152 175 5,100  Level Kansas City Center
01:38PM 38.4217 -90.2261 157° South 159 183 5,100  Level Kansas City Center
01:39PM 38.3697 -90.1975 157° South 165 190 5,100  Level Kansas City Center
01:40PM 38.3275 -90.1747 157° South 166 191 5,100  Level Kansas City Center
01:41PM 38.2856 -90.1506 156° South 166 191 5,100  Level Kansas City Center
01:42PM 38.2439 -90.1261 155° Southeast 165 190 5,100  Level Kansas City Center
01:43PM 38.2008 -90.1039 158° South 166 191 5,100  Level Kansas City Center
01:44PM 38.1581 -90.0817 158° South 166 191 5,100  Level Kansas City Center
01:45PM 38.1064 -90.0544 157° South 168 193 5,100  Level Kansas City Center
01:46PM 38.0608 -90.0283 156° South 167 192 5,100  Level Kansas City Center
01:47PM 38.0178 -90.0047 157° South 168 193 5,100  Level Kansas City Center
01:48PM 37.9719 -89.9786 156° South 169 194 5,100  Level Kansas City Center
01:49PM 37.9303 -89.9558 157° South 164 189 5,100  Level Kansas City Center
01:50PM 37.8881 -89.9317 156° South 166 191 5,100  Level Kansas City Center
01:51PM 37.8433 -89.9092 158° South 165 190 5,100  Level Kansas City Center
01:52PM 37.8008 -89.8856 156° South 166 191 5,100  Level Kansas City Center
01:54PM 37.7592 -89.8611 155° Southeast 165 190 5,100  Level Kansas City Center
01:55PM 37.7161 -89.8378 157° South 166 191 5,100  Level Kansas City Center
01:56PM 37.6739 -89.8147 157° South 166 191 5,100  Level Kansas City Center
01:57PM 37.6219 -89.7867 157° South 168 193 5,100  Level Kansas City Center
01:58PM 37.5797 -89.7625 156° South 167 192 5,100  Level Kansas City Center
01:59PM 37.5392 -89.7411 157° South 165 190 5,100 -60 Level Kansas City Center
02:00PM 37.4964 -89.7192 158° South 165 190 5,000 -420 Descending Kansas City Center
02:01PM 37.4419 -89.6889 156° South 175 201 4,300 -660 Descending Kansas City Center
02:02PM 37.3936 -89.6633 157° South 185 213 3,700 -600 Descending Kansas City Center
02:03PM 37.3469 -89.6411 159° South 182 209 3,100 -720 Descending Kansas City Center
02:04PM 37.3025 -89.6083 150° Southeast 182 209 2,300 -780 Descending Kansas City Center
02:05PM 37.2594 -89.5761 149° Southeast 178 205 1,600 -720 Descending Kansas City Center